Terminal Aerodrome Forecast
Issued by NWS

Home | Current Version | Previous Version | Text Only | Print | Product List | Glossary On
Versions: 1 2 3 4 5 6 7 8 9 10 11
000
FTUS43 KFGF 302326
TAFBJI
TAF
KBJI 302326Z 0100/0124 06011G18KT P6SM FEW060 SCT250
     FM010200 04005KT P6SM SKC
     FM011600 02006KT P6SM FEW250=

USA.gov is the U.S. government's official web portal to all federal, state and local government web resources and services.